WAT9612 LPMA-LPPR
Flight info
| Callsign | WAT9612 |
|---|---|
| Flight time | 1h 50m |
| Altitude | 30000 |
| Route | DEGUN/N0452F320 DCT VABEM DCT ASMAR DCT DIRMA DCT ASMOV |
| Aircraft | A306/H-SDE3FGHIRWY/LB1 |
Departure
| Time | 2026-05-05 16:49 |
|---|---|
| Airport | Cristiano Ronaldo International Airport (LPMA) |
Arrival
| Time | 2026-05-05 18:39 |
|---|---|
| Airport | Francisco de Sá Carneiro Airport (LPPR) |
| Time | Latitude | Longitude | Altitude | Speed | Heading |
|---|---|---|---|---|---|
| 2026-05-05 16:17 | 32.69590 | -16.77377 | 175 ft | 0 kts | 282° |
| 2026-05-05 16:31 | 32.69590 | -16.77376 | 175 ft | 0 kts | 282° |
| 2026-05-05 16:37 | 32.69591 | -16.77380 | 175 ft | 2 kts | 282° |
| 2026-05-05 16:37 | 32.69598 | -16.77421 | 175 ft | 8 kts | 282° |
| 2026-05-05 16:37 | 32.69581 | -16.77494 | 175 ft | 12 kts | 229° |
| 2026-05-05 16:37 | 32.69512 | -16.77580 | 175 ft | 17 kts | 226° |
| 2026-05-05 16:38 | 32.69434 | -16.77677 | 175 ft | 15 kts | 226° |
| 2026-05-05 16:38 | 32.69372 | -16.77755 | 175 ft | 11 kts | 226° |
| 2026-05-05 16:38 | 32.69325 | -16.77813 | 175 ft | 8 kts | 226° |
| 2026-05-05 16:38 | 32.69295 | -16.77856 | 175 ft | 5 kts | 240° |
| 2026-05-05 16:39 | 32.69292 | -16.77867 | 175 ft | 0 kts | 253° |
| 2026-05-05 16:45 | 32.69292 | -16.77866 | 175 ft | 0 kts | 253° |
| 2026-05-05 16:46 | 32.69292 | -16.77867 | 175 ft | 1 kts | 253° |
| 2026-05-05 16:46 | 32.69290 | -16.77901 | 175 ft | 10 kts | 267° |
| 2026-05-05 16:46 | 32.69283 | -16.78009 | 175 ft | 16 kts | 258° |
| 2026-05-05 16:47 | 32.69211 | -16.78120 | 172 ft | 20 kts | 224° |
| 2026-05-05 16:47 | 32.69102 | -16.78249 | 166 ft | 25 kts | 225° |
| 2026-05-05 16:47 | 32.68973 | -16.78385 | 159 ft | 23 kts | 204° |
| 2026-05-05 16:47 | 32.68897 | -16.78458 | 159 ft | 9 kts | 313° |
| 2026-05-05 16:48 | 32.68948 | -16.78424 | 159 ft | 18 kts | 44° |
| 2026-05-05 16:48 | 32.69201 | -16.78131 | 171 ft | 83 kts | 45° |
| 2026-05-05 16:48 | 32.69763 | -16.77483 | 209 ft | 140 kts | 44° |
| 2026-05-05 16:48 | 32.70508 | -16.76566 | 670 ft | 159 kts | 47° |
| 2026-05-05 16:49 | 32.70944 | -16.75336 | 1452 ft | 176 kts | 90° |
| 2026-05-05 16:49 | 32.70484 | -16.73965 | 2147 ft | 188 kts | 133° |
| 2026-05-05 16:49 | 32.69308 | -16.73133 | 2580 ft | 209 kts | 163° |
| 2026-05-05 16:49 | 32.68025 | -16.72222 | 2955 ft | 236 kts | 133° |
| 2026-05-05 16:50 | 32.67060 | -16.70585 | 3628 ft | 249 kts | 117° |
| 2026-05-05 16:50 | 32.66636 | -16.68555 | 4355 ft | 256 kts | 95° |
| 2026-05-05 16:50 | 32.66742 | -16.66540 | 5700 ft | 238 kts | 84° |
| 2026-05-05 16:50 | 32.66787 | -16.64510 | 6294 ft | 260 kts | 95° |
| 2026-05-05 16:51 | 32.66546 | -16.62291 | 6313 ft | 277 kts | 100° |
| 2026-05-05 16:51 | 32.66199 | -16.60044 | 6842 ft | 272 kts | 104° |
| 2026-05-05 16:51 | 32.65755 | -16.57894 | 7815 ft | 269 kts | 107° |
| 2026-05-05 16:51 | 32.65314 | -16.55772 | 8788 ft | 267 kts | 98° |
| 2026-05-05 16:52 | 32.65565 | -16.53542 | 9392 ft | 284 kts | 66° |
| 2026-05-05 16:52 | 32.66767 | -16.51658 | 10212 ft | 292 kts | 41° |
| 2026-05-05 16:52 | 32.68324 | -16.50067 | 11040 ft | 298 kts | 39° |
| 2026-05-05 16:52 | 32.69921 | -16.48469 | 11867 ft | 304 kts | 40° |
| 2026-05-05 16:53 | 32.71528 | -16.46800 | 12559 ft | 309 kts | 40° |
| 2026-05-05 16:53 | 32.73116 | -16.45062 | 13238 ft | 312 kts | 42° |
| 2026-05-05 16:53 | 32.74690 | -16.43310 | 13923 ft | 315 kts | 42° |
| 2026-05-05 16:53 | 32.76297 | -16.41508 | 14532 ft | 319 kts | 42° |
| 2026-05-05 16:54 | 32.77915 | -16.39681 | 15100 ft | 323 kts | 42° |
| 2026-05-05 16:54 | 32.79545 | -16.37829 | 15688 ft | 326 kts | 43° |
| 2026-05-05 16:54 | 32.81190 | -16.35953 | 16278 ft | 330 kts | 43° |
| 2026-05-05 16:54 | 32.82855 | -16.34050 | 16823 ft | 333 kts | 43° |
| 2026-05-05 16:55 | 32.84531 | -16.32133 | 17386 ft | 336 kts | 43° |
| 2026-05-05 16:55 | 32.86228 | -16.30191 | 17988 ft | 340 kts | 43° |
| 2026-05-05 16:55 | 32.87938 | -16.28232 | 18574 ft | 343 kts | 43° |
| 2026-05-05 16:55 | 32.89669 | -16.26248 | 19024 ft | 347 kts | 43° |
| 2026-05-05 16:56 | 32.91415 | -16.24244 | 19474 ft | 351 kts | 43° |
| 2026-05-05 16:56 | 32.93177 | -16.22221 | 19943 ft | 354 kts | 42° |
| 2026-05-05 16:56 | 32.94957 | -16.20176 | 20450 ft | 357 kts | 42° |
| 2026-05-05 16:56 | 32.96752 | -16.18113 | 20970 ft | 360 kts | 42° |
| 2026-05-05 16:57 | 32.98563 | -16.16030 | 21471 ft | 364 kts | 42° |
| 2026-05-05 16:57 | 33.00396 | -16.13919 | 21913 ft | 368 kts | 42° |
| 2026-05-05 16:57 | 33.02249 | -16.11784 | 22415 ft | 372 kts | 42° |
| 2026-05-05 16:57 | 33.04123 | -16.09625 | 22913 ft | 377 kts | 42° |
| 2026-05-05 16:58 | 33.06020 | -16.07436 | 23402 ft | 380 kts | 42° |
| 2026-05-05 16:58 | 33.07923 | -16.05240 | 23830 ft | 383 kts | 42° |
| 2026-05-05 16:58 | 33.09825 | -16.03045 | 24182 ft | 386 kts | 42° |
| 2026-05-05 16:58 | 33.11760 | -16.00809 | 24559 ft | 388 kts | 42° |
| 2026-05-05 16:59 | 33.13068 | -15.99297 | 24799 ft | 389 kts | 42° |
| 2026-05-05 16:59 | 33.15658 | -15.96301 | 25303 ft | 392 kts | 42° |
| 2026-05-05 16:59 | 33.17620 | -15.94030 | 25696 ft | 394 kts | 42° |
| 2026-05-05 16:59 | 33.19584 | -15.91754 | 26151 ft | 392 kts | 42° |
| 2026-05-05 17:00 | 33.21541 | -15.89485 | 26619 ft | 392 kts | 41° |
| 2026-05-05 17:00 | 33.23557 | -15.87315 | 27054 ft | 389 kts | 34° |
| 2026-05-05 17:00 | 33.25747 | -15.85426 | 27555 ft | 387 kts | 31° |
| 2026-05-05 17:00 | 33.27975 | -15.83648 | 28049 ft | 385 kts | 30° |
| 2026-05-05 17:01 | 33.30237 | -15.81929 | 28431 ft | 384 kts | 28° |
| 2026-05-05 17:01 | 33.32512 | -15.80240 | 28824 ft | 384 kts | 28° |
| 2026-05-05 17:01 | 33.34789 | -15.78562 | 29202 ft | 383 kts | 28° |
| 2026-05-05 17:01 | 33.37057 | -15.76887 | 29513 ft | 386 kts | 28° |
| 2026-05-05 17:02 | 33.39334 | -15.75199 | 29669 ft | 392 kts | 28° |
| 2026-05-05 17:02 | 33.41665 | -15.73462 | 29845 ft | 398 kts | 28° |
| 2026-05-05 17:02 | 33.44034 | -15.71690 | 29995 ft | 405 kts | 28° |
| 2026-05-05 17:02 | 33.46440 | -15.69885 | 30132 ft | 411 kts | 28° |
| 2026-05-05 17:03 | 33.51393 | -15.66160 | 30141 ft | 429 kts | 29° |
| 2026-05-05 17:03 | 33.56553 | -15.62272 | 30138 ft | 447 kts | 29° |
| 2026-05-05 17:04 | 33.61912 | -15.58228 | 30140 ft | 462 kts | 29° |
| 2026-05-05 17:04 | 33.67413 | -15.54067 | 30135 ft | 469 kts | 29° |
| 2026-05-05 17:05 | 33.72935 | -15.49882 | 30140 ft | 470 kts | 29° |
| 2026-05-05 17:05 | 33.78439 | -15.45707 | 30138 ft | 470 kts | 28° |
| 2026-05-05 17:06 | 33.83985 | -15.41496 | 30139 ft | 471 kts | 28° |
| 2026-05-05 17:06 | 33.89535 | -15.37276 | 30137 ft | 472 kts | 28° |
| 2026-05-05 17:07 | 33.95090 | -15.33046 | 30143 ft | 473 kts | 28° |
| 2026-05-05 17:07 | 34.00647 | -15.28806 | 30145 ft | 473 kts | 28° |
| 2026-05-05 17:08 | 34.06216 | -15.24552 | 30144 ft | 473 kts | 28° |
| 2026-05-05 17:08 | 34.11740 | -15.20325 | 30141 ft | 474 kts | 28° |
| 2026-05-05 17:09 | 34.17308 | -15.16058 | 30138 ft | 474 kts | 28° |
| 2026-05-05 17:09 | 34.22886 | -15.11776 | 30143 ft | 475 kts | 28° |
| 2026-05-05 17:10 | 34.28470 | -15.07483 | 30146 ft | 475 kts | 28° |
| 2026-05-05 17:10 | 34.34050 | -15.03186 | 30147 ft | 475 kts | 28° |
| 2026-05-05 17:11 | 34.39634 | -14.98880 | 30147 ft | 476 kts | 28° |
| 2026-05-05 17:11 | 34.45183 | -14.94593 | 30148 ft | 476 kts | 28° |
| 2026-05-05 17:12 | 34.50777 | -14.90265 | 30155 ft | 476 kts | 28° |
| 2026-05-05 17:12 | 34.56358 | -14.85938 | 30149 ft | 475 kts | 28° |
| 2026-05-05 17:13 | 34.61927 | -14.81614 | 30151 ft | 473 kts | 28° |
| 2026-05-05 17:13 | 34.67466 | -14.77307 | 30143 ft | 472 kts | 28° |
| 2026-05-05 17:14 | 34.72948 | -14.73038 | 30154 ft | 470 kts | 29° |
| 2026-05-05 17:14 | 34.78444 | -14.68750 | 30151 ft | 469 kts | 29° |
| 2026-05-05 17:15 | 34.83926 | -14.64468 | 30155 ft | 468 kts | 29° |
| 2026-05-05 17:15 | 34.89400 | -14.60185 | 30150 ft | 468 kts | 28° |
| 2026-05-05 17:16 | 34.94873 | -14.55895 | 30154 ft | 468 kts | 28° |
| 2026-05-05 17:16 | 35.00344 | -14.51601 | 30155 ft | 468 kts | 28° |
| 2026-05-05 17:17 | 35.05822 | -14.47294 | 30156 ft | 469 kts | 28° |
| 2026-05-05 17:17 | 35.11310 | -14.42972 | 30156 ft | 469 kts | 28° |
| 2026-05-05 17:18 | 35.15866 | -14.39378 | 30156 ft | 469 kts | 28° |
| 2026-05-05 17:18 | 35.21358 | -14.35040 | 30161 ft | 470 kts | 28° |
| 2026-05-05 17:19 | 35.26856 | -14.30689 | 30159 ft | 471 kts | 28° |
| 2026-05-05 17:19 | 35.32356 | -14.26331 | 30157 ft | 471 kts | 28° |
| 2026-05-05 17:20 | 35.37862 | -14.21960 | 30159 ft | 472 kts | 28° |
| 2026-05-05 17:20 | 35.43380 | -14.17578 | 30189 ft | 471 kts | 31° |
| 2026-05-05 17:21 | 35.48827 | -14.13135 | 30160 ft | 469 kts | 31° |
| 2026-05-05 17:22 | 35.57009 | -14.06611 | 30162 ft | 469 kts | 30° |
| 2026-05-05 17:22 | 35.62506 | -14.02285 | 30162 ft | 470 kts | 30° |
| 2026-05-05 17:23 | 35.67999 | -13.97909 | 30154 ft | 470 kts | 31° |
| 2026-05-05 17:23 | 35.73479 | -13.93513 | 30158 ft | 470 kts | 31° |
| 2026-05-05 17:24 | 35.78966 | -13.89100 | 30159 ft | 471 kts | 31° |
| 2026-05-05 17:24 | 35.84446 | -13.84686 | 30165 ft | 471 kts | 31° |
| 2026-05-05 17:25 | 35.89908 | -13.80281 | 30162 ft | 472 kts | 31° |
| 2026-05-05 17:25 | 35.95409 | -13.75838 | 30159 ft | 473 kts | 31° |
| 2026-05-05 17:26 | 36.00920 | -13.71378 | 30157 ft | 474 kts | 31° |
| 2026-05-05 17:26 | 36.06446 | -13.66899 | 30162 ft | 475 kts | 31° |
| 2026-05-05 17:27 | 36.11970 | -13.62413 | 30161 ft | 475 kts | 31° |
| 2026-05-05 17:27 | 36.17461 | -13.57947 | 30157 ft | 474 kts | 31° |
| 2026-05-05 17:28 | 36.22980 | -13.53450 | 30160 ft | 474 kts | 31° |
| 2026-05-05 17:28 | 36.28492 | -13.48952 | 30166 ft | 474 kts | 31° |
| 2026-05-05 17:29 | 36.34002 | -13.44447 | 30163 ft | 474 kts | 31° |
| 2026-05-05 17:29 | 36.39506 | -13.39940 | 30165 ft | 474 kts | 31° |
| 2026-05-05 17:30 | 36.45006 | -13.35428 | 30165 ft | 473 kts | 31° |
| 2026-05-05 17:30 | 36.50512 | -13.30904 | 30162 ft | 473 kts | 31° |
| 2026-05-05 17:31 | 36.56000 | -13.26386 | 30163 ft | 473 kts | 31° |
| 2026-05-05 17:31 | 36.61446 | -13.21895 | 30146 ft | 472 kts | 31° |
| 2026-05-05 17:32 | 36.66923 | -13.17370 | 30171 ft | 472 kts | 31° |
| 2026-05-05 17:32 | 36.72405 | -13.12835 | 30161 ft | 473 kts | 30° |
| 2026-05-05 17:33 | 36.77891 | -13.08288 | 30158 ft | 474 kts | 30° |
| 2026-05-05 17:33 | 36.83386 | -13.03725 | 30157 ft | 474 kts | 31° |
| 2026-05-05 17:34 | 36.88884 | -12.99152 | 30156 ft | 475 kts | 31° |
| 2026-05-05 17:34 | 36.94358 | -12.94590 | 30159 ft | 475 kts | 31° |
| 2026-05-05 17:35 | 36.99868 | -12.89990 | 30163 ft | 476 kts | 30° |
| 2026-05-05 17:35 | 37.05381 | -12.85380 | 30161 ft | 476 kts | 30° |
| 2026-05-05 17:36 | 37.10893 | -12.80763 | 30167 ft | 477 kts | 30° |
| 2026-05-05 17:36 | 37.16410 | -12.76133 | 30164 ft | 477 kts | 30° |
| 2026-05-05 17:37 | 37.21901 | -12.71517 | 30162 ft | 478 kts | 30° |
| 2026-05-05 17:37 | 37.27426 | -12.66864 | 30157 ft | 478 kts | 30° |
| 2026-05-05 17:38 | 37.32954 | -12.62199 | 30159 ft | 479 kts | 30° |
| 2026-05-05 17:38 | 37.38489 | -12.57521 | 30158 ft | 479 kts | 30° |
| 2026-05-05 17:39 | 37.44021 | -12.52836 | 30157 ft | 480 kts | 30° |
| 2026-05-05 17:39 | 37.49559 | -12.48138 | 30160 ft | 480 kts | 30° |
| 2026-05-05 17:40 | 37.55102 | -12.43427 | 30158 ft | 480 kts | 30° |
| 2026-05-05 17:40 | 37.60634 | -12.38717 | 30158 ft | 480 kts | 30° |
| 2026-05-05 17:41 | 37.66137 | -12.34023 | 30156 ft | 480 kts | 30° |
| 2026-05-05 17:41 | 37.71667 | -12.29297 | 30158 ft | 480 kts | 30° |
| 2026-05-05 17:42 | 37.77195 | -12.24564 | 30150 ft | 480 kts | 30° |
| 2026-05-05 17:42 | 37.82726 | -12.19821 | 30151 ft | 480 kts | 30° |
| 2026-05-05 17:43 | 37.88219 | -12.15100 | 30150 ft | 479 kts | 30° |
| 2026-05-05 17:43 | 37.93730 | -12.10356 | 30151 ft | 478 kts | 30° |
| 2026-05-05 17:44 | 37.99242 | -12.05603 | 30143 ft | 478 kts | 30° |
| 2026-05-05 17:44 | 38.04728 | -12.00862 | 30150 ft | 477 kts | 30° |
| 2026-05-05 17:45 | 38.10211 | -11.96116 | 30154 ft | 476 kts | 30° |
| 2026-05-05 17:45 | 38.15683 | -11.91371 | 30140 ft | 476 kts | 30° |
| 2026-05-05 17:46 | 38.21112 | -11.86654 | 30143 ft | 475 kts | 30° |
| 2026-05-05 17:46 | 38.26566 | -11.81906 | 30145 ft | 474 kts | 30° |
| 2026-05-05 17:47 | 38.32008 | -11.77161 | 30146 ft | 473 kts | 30° |
| 2026-05-05 17:47 | 38.37435 | -11.72419 | 30148 ft | 473 kts | 30° |
| 2026-05-05 17:48 | 38.42854 | -11.67676 | 30140 ft | 472 kts | 30° |
| 2026-05-05 17:48 | 38.48252 | -11.62942 | 30138 ft | 470 kts | 30° |
| 2026-05-05 17:49 | 38.53638 | -11.58210 | 30140 ft | 469 kts | 30° |
| 2026-05-05 17:49 | 38.59019 | -11.53474 | 30137 ft | 469 kts | 30° |
| 2026-05-05 17:50 | 38.64376 | -11.48750 | 30137 ft | 468 kts | 30° |
| 2026-05-05 17:50 | 38.69725 | -11.44025 | 30138 ft | 466 kts | 31° |
| 2026-05-05 17:51 | 38.75027 | -11.39333 | 30133 ft | 465 kts | 31° |
| 2026-05-05 17:51 | 38.80353 | -11.34610 | 30127 ft | 464 kts | 31° |
| 2026-05-05 17:52 | 38.85650 | -11.29905 | 30130 ft | 463 kts | 31° |
| 2026-05-05 17:52 | 38.90939 | -11.25197 | 30129 ft | 462 kts | 31° |
| 2026-05-05 17:53 | 38.96181 | -11.20524 | 30132 ft | 461 kts | 31° |
| 2026-05-05 17:53 | 39.01449 | -11.15818 | 30129 ft | 461 kts | 31° |
| 2026-05-05 17:54 | 39.06710 | -11.11110 | 30124 ft | 460 kts | 31° |
| 2026-05-05 17:54 | 39.11972 | -11.06392 | 30128 ft | 460 kts | 31° |
| 2026-05-05 17:55 | 39.17227 | -11.01673 | 30127 ft | 459 kts | 31° |
| 2026-05-05 17:55 | 39.22467 | -10.96957 | 30121 ft | 459 kts | 31° |
| 2026-05-05 17:56 | 39.27705 | -10.92235 | 30121 ft | 459 kts | 31° |
| 2026-05-05 17:56 | 39.32945 | -10.87501 | 30118 ft | 459 kts | 31° |
| 2026-05-05 17:57 | 39.38142 | -10.82798 | 30119 ft | 459 kts | 31° |
| 2026-05-05 17:57 | 39.43381 | -10.78049 | 30120 ft | 459 kts | 31° |
| 2026-05-05 17:58 | 39.48609 | -10.73300 | 30117 ft | 459 kts | 31° |
| 2026-05-05 17:58 | 39.53841 | -10.68539 | 30119 ft | 459 kts | 31° |
| 2026-05-05 17:59 | 39.59067 | -10.63774 | 30112 ft | 459 kts | 31° |
| 2026-05-05 17:59 | 39.64290 | -10.59003 | 30116 ft | 459 kts | 31° |
| 2026-05-05 18:00 | 39.69478 | -10.54256 | 30116 ft | 459 kts | 31° |
| 2026-05-05 18:00 | 39.74692 | -10.49475 | 30117 ft | 459 kts | 31° |
| 2026-05-05 18:01 | 39.79907 | -10.44684 | 30110 ft | 459 kts | 31° |
| 2026-05-05 18:01 | 39.85118 | -10.39888 | 30116 ft | 459 kts | 31° |
| 2026-05-05 18:02 | 39.90334 | -10.35078 | 30112 ft | 458 kts | 31° |
| 2026-05-05 18:02 | 39.95536 | -10.30273 | 30109 ft | 458 kts | 31° |
| 2026-05-05 18:03 | 39.99860 | -10.26271 | 30108 ft | 458 kts | 31° |
| 2026-05-05 18:03 | 40.05056 | -10.21454 | 30106 ft | 458 kts | 31° |
| 2026-05-05 18:04 | 40.11088 | -10.15850 | 30106 ft | 457 kts | 31° |
| 2026-05-05 18:04 | 40.16271 | -10.11025 | 30106 ft | 457 kts | 31° |
| 2026-05-05 18:05 | 40.21310 | -10.06018 | 30102 ft | 456 kts | 39° |
| 2026-05-05 18:05 | 40.25382 | -9.99604 | 30081 ft | 460 kts | 51° |
| 2026-05-05 18:05 | 40.27250 | -9.96189 | 29535 ft | 461 kts | 51° |
| 2026-05-05 18:06 | 40.28474 | -9.93923 | 29108 ft | 460 kts | 51° |
| 2026-05-05 18:06 | 40.29718 | -9.91612 | 28675 ft | 458 kts | 51° |
| 2026-05-05 18:06 | 40.32132 | -9.87118 | 27912 ft | 453 kts | 51° |
| 2026-05-05 18:06 | 40.33937 | -9.83753 | 27340 ft | 450 kts | 51° |
| 2026-05-05 18:07 | 40.35738 | -9.80393 | 26765 ft | 447 kts | 51° |
| 2026-05-05 18:07 | 40.38100 | -9.75982 | 26016 ft | 444 kts | 51° |
| 2026-05-05 18:07 | 40.39296 | -9.73745 | 25631 ft | 442 kts | 51° |
| 2026-05-05 18:07 | 40.41049 | -9.70465 | 25220 ft | 436 kts | 51° |
| 2026-05-05 18:08 | 40.42764 | -9.67247 | 25024 ft | 425 kts | 51° |
| 2026-05-05 18:08 | 40.44441 | -9.64100 | 24879 ft | 419 kts | 51° |
| 2026-05-05 18:08 | 40.46107 | -9.60975 | 24689 ft | 416 kts | 51° |
| 2026-05-05 18:08 | 40.47776 | -9.57845 | 23972 ft | 422 kts | 51° |
| 2026-05-05 18:09 | 40.49475 | -9.54656 | 23096 ft | 428 kts | 51° |
| 2026-05-05 18:09 | 40.51182 | -9.51444 | 22384 ft | 428 kts | 51° |
| 2026-05-05 18:09 | 40.52858 | -9.48284 | 21837 ft | 425 kts | 51° |
| 2026-05-05 18:09 | 40.54538 | -9.45110 | 21286 ft | 421 kts | 51° |
| 2026-05-05 18:10 | 40.56202 | -9.41966 | 20779 ft | 417 kts | 51° |
| 2026-05-05 18:10 | 40.57857 | -9.38837 | 20256 ft | 414 kts | 51° |
| 2026-05-05 18:10 | 40.59490 | -9.35746 | 19762 ft | 411 kts | 51° |
| 2026-05-05 18:10 | 40.61113 | -9.32672 | 19289 ft | 406 kts | 51° |
| 2026-05-05 18:11 | 40.62723 | -9.29620 | 18776 ft | 404 kts | 51° |
| 2026-05-05 18:11 | 40.64322 | -9.26585 | 18298 ft | 400 kts | 51° |
| 2026-05-05 18:11 | 40.65901 | -9.23585 | 17799 ft | 396 kts | 51° |
| 2026-05-05 18:11 | 40.67460 | -9.20619 | 17230 ft | 391 kts | 51° |
| 2026-05-05 18:12 | 40.69000 | -9.17689 | 16538 ft | 386 kts | 51° |
| 2026-05-05 18:12 | 40.70514 | -9.14803 | 15742 ft | 381 kts | 51° |
| 2026-05-05 18:12 | 40.72006 | -9.11957 | 15034 ft | 374 kts | 51° |
| 2026-05-05 18:12 | 40.73479 | -9.09146 | 14296 ft | 369 kts | 51° |
| 2026-05-05 18:13 | 40.74922 | -9.06388 | 13490 ft | 363 kts | 51° |
| 2026-05-05 18:13 | 40.76344 | -9.03669 | 12670 ft | 355 kts | 51° |
| 2026-05-05 18:13 | 40.77721 | -9.01033 | 12094 ft | 344 kts | 52° |
| 2026-05-05 18:13 | 40.79067 | -8.98454 | 11632 ft | 339 kts | 52° |
| 2026-05-05 18:14 | 40.80402 | -8.95898 | 11143 ft | 337 kts | 52° |
| 2026-05-05 18:14 | 40.81728 | -8.93358 | 10637 ft | 336 kts | 52° |
| 2026-05-05 18:14 | 40.83045 | -8.90830 | 10246 ft | 330 kts | 52° |
| 2026-05-05 18:14 | 40.84316 | -8.88384 | 10155 ft | 316 kts | 52° |
| 2026-05-05 18:15 | 40.85530 | -8.86042 | 10060 ft | 302 kts | 52° |
| 2026-05-05 18:15 | 40.86686 | -8.83815 | 9912 ft | 292 kts | 52° |
| 2026-05-05 18:15 | 40.87827 | -8.81620 | 9550 ft | 289 kts | 52° |
| 2026-05-05 18:15 | 40.88961 | -8.79438 | 9165 ft | 287 kts | 51° |
| 2026-05-05 18:16 | 40.90089 | -8.77267 | 8777 ft | 285 kts | 52° |
| 2026-05-05 18:16 | 40.91209 | -8.75106 | 8388 ft | 284 kts | 52° |
| 2026-05-05 18:16 | 40.92319 | -8.72965 | 8049 ft | 281 kts | 52° |
| 2026-05-05 18:16 | 40.93405 | -8.70863 | 7688 ft | 273 kts | 52° |
| 2026-05-05 18:17 | 40.94474 | -8.68796 | 7171 ft | 271 kts | 52° |
| 2026-05-05 18:17 | 40.95535 | -8.66744 | 6664 ft | 269 kts | 52° |
| 2026-05-05 18:17 | 40.96590 | -8.64706 | 6144 ft | 267 kts | 51° |
| 2026-05-05 18:17 | 40.97806 | -8.62903 | 5611 ft | 261 kts | 35° |
| 2026-05-05 18:18 | 40.99406 | -8.61891 | 5080 ft | 254 kts | 11° |
| 2026-05-05 18:18 | 41.01143 | -8.61860 | 4586 ft | 249 kts | 352° |
| 2026-05-05 18:18 | 41.02824 | -8.62275 | 4261 ft | 240 kts | 348° |
| 2026-05-05 18:18 | 41.04417 | -8.62724 | 4018 ft | 229 kts | 347° |
| 2026-05-05 18:19 | 41.05967 | -8.63143 | 3651 ft | 226 kts | 348° |
| 2026-05-05 18:19 | 41.07482 | -8.63542 | 3340 ft | 221 kts | 348° |
| 2026-05-05 18:19 | 41.08945 | -8.63936 | 3205 ft | 209 kts | 348° |
| 2026-05-05 18:19 | 41.10359 | -8.64319 | 3075 ft | 207 kts | 347° |
| 2026-05-05 18:20 | 41.11768 | -8.64698 | 3023 ft | 206 kts | 348° |
| 2026-05-05 18:20 | 41.13173 | -8.65071 | 2786 ft | 206 kts | 348° |
| 2026-05-05 18:20 | 41.14578 | -8.65441 | 2547 ft | 206 kts | 348° |
| 2026-05-05 18:20 | 41.15971 | -8.65807 | 2271 ft | 200 kts | 347° |
| 2026-05-05 18:21 | 41.17287 | -8.66168 | 1963 ft | 187 kts | 345° |
| 2026-05-05 18:21 | 41.18533 | -8.66511 | 1646 ft | 178 kts | 348° |
| 2026-05-05 18:21 | 41.19719 | -8.66804 | 1355 ft | 167 kts | 345° |
| 2026-05-05 18:21 | 41.20816 | -8.67086 | 1559 ft | 164 kts | 349° |
| 2026-05-05 18:22 | 41.21977 | -8.67301 | 2063 ft | 172 kts | 353° |
| 2026-05-05 18:22 | 41.23096 | -8.67522 | 2594 ft | 190 kts | 347° |
| 2026-05-05 18:22 | 41.23941 | -8.67717 | 2913 ft | 204 kts | 349° |
| 2026-05-05 18:22 | 41.25382 | -8.68082 | 3264 ft | 216 kts | 349° |
| 2026-05-05 18:23 | 41.26954 | -8.68393 | 3613 ft | 239 kts | 351° |
| 2026-05-05 18:23 | 41.28603 | -8.68759 | 4510 ft | 243 kts | 343° |
| 2026-05-05 18:23 | 41.30000 | -8.70001 | 5401 ft | 248 kts | 310° |
| 2026-05-05 18:23 | 41.30735 | -8.72095 | 6071 ft | 256 kts | 283° |
| 2026-05-05 18:24 | 41.30780 | -8.74520 | 6086 ft | 268 kts | 265° |
| 2026-05-05 18:24 | 41.30204 | -8.76850 | 6057 ft | 263 kts | 245° |
| 2026-05-05 18:24 | 41.29159 | -8.78781 | 6063 ft | 256 kts | 232° |
| 2026-05-05 18:24 | 41.27926 | -8.80475 | 6164 ft | 257 kts | 229° |
| 2026-05-05 18:25 | 41.26648 | -8.82160 | 5957 ft | 260 kts | 228° |
| 2026-05-05 18:25 | 41.25799 | -8.83275 | 5767 ft | 258 kts | 229° |
| 2026-05-05 18:25 | 41.24103 | -8.85520 | 6028 ft | 258 kts | 229° |
| 2026-05-05 18:25 | 41.22774 | -8.87124 | 6002 ft | 261 kts | 215° |
| 2026-05-05 18:26 | 41.21060 | -8.87905 | 5980 ft | 265 kts | 185° |
| 2026-05-05 18:26 | 41.19218 | -8.87729 | 5990 ft | 267 kts | 171° |
| 2026-05-05 18:26 | 41.17390 | -8.87265 | 5994 ft | 268 kts | 169° |
| 2026-05-05 18:26 | 41.15560 | -8.86767 | 5983 ft | 268 kts | 169° |
| 2026-05-05 18:27 | 41.13734 | -8.86268 | 5984 ft | 269 kts | 169° |
| 2026-05-05 18:27 | 41.11905 | -8.85764 | 5990 ft | 268 kts | 169° |
| 2026-05-05 18:27 | 41.10074 | -8.85259 | 5998 ft | 269 kts | 169° |
| 2026-05-05 18:27 | 41.08243 | -8.84759 | 5996 ft | 269 kts | 169° |
| 2026-05-05 18:28 | 41.04599 | -8.83762 | 5993 ft | 269 kts | 169° |
| 2026-05-05 18:28 | 41.02763 | -8.83254 | 5896 ft | 270 kts | 169° |
| 2026-05-05 18:28 | 41.00913 | -8.82750 | 5517 ft | 271 kts | 169° |
| 2026-05-05 18:29 | 40.99078 | -8.82253 | 5244 ft | 268 kts | 169° |
| 2026-05-05 18:29 | 40.97261 | -8.81758 | 4939 ft | 266 kts | 169° |
| 2026-05-05 18:29 | 40.95451 | -8.81262 | 4622 ft | 265 kts | 169° |
| 2026-05-05 18:29 | 40.93647 | -8.80773 | 4310 ft | 263 kts | 169° |
| 2026-05-05 18:30 | 40.91878 | -8.80204 | 4035 ft | 261 kts | 155° |
| 2026-05-05 18:30 | 40.90523 | -8.78703 | 3986 ft | 254 kts | 117° |
| 2026-05-05 18:30 | 40.90111 | -8.76523 | 3992 ft | 242 kts | 79° |
| 2026-05-05 18:30 | 40.90728 | -8.74613 | 3977 ft | 218 kts | 41° |
| 2026-05-05 18:31 | 40.91825 | -8.73265 | 3995 ft | 218 kts | 44° |
| 2026-05-05 18:31 | 40.92786 | -8.71704 | 3992 ft | 220 kts | 48° |
| 2026-05-05 18:31 | 40.93704 | -8.70084 | 3991 ft | 220 kts | 50° |
| 2026-05-05 18:31 | 40.94594 | -8.68434 | 3987 ft | 221 kts | 51° |
| 2026-05-05 18:32 | 40.95471 | -8.66759 | 3995 ft | 221 kts | 51° |
| 2026-05-05 18:32 | 40.96334 | -8.65116 | 3988 ft | 221 kts | 51° |
| 2026-05-05 18:32 | 40.97266 | -8.63503 | 3987 ft | 219 kts | 44° |
| 2026-05-05 18:32 | 40.98421 | -8.62234 | 3996 ft | 214 kts | 25° |
| 2026-05-05 18:33 | 40.99814 | -8.61720 | 4019 ft | 208 kts | 0° |
| 2026-05-05 18:33 | 41.01257 | -8.61914 | 3997 ft | 210 kts | 350° |
| 2026-05-05 18:33 | 41.02691 | -8.62285 | 3990 ft | 210 kts | 348° |
| 2026-05-05 18:33 | 41.04104 | -8.62675 | 3914 ft | 202 kts | 347° |
| 2026-05-05 18:34 | 41.05438 | -8.63052 | 3662 ft | 191 kts | 349° |
| 2026-05-05 18:34 | 41.06734 | -8.63374 | 3418 ft | 187 kts | 349° |
| 2026-05-05 18:34 | 41.07973 | -8.63694 | 3170 ft | 176 kts | 348° |
| 2026-05-05 18:34 | 41.09141 | -8.63991 | 2923 ft | 166 kts | 349° |
| 2026-05-05 18:35 | 41.10270 | -8.64271 | 2726 ft | 165 kts | 347° |
| 2026-05-05 18:35 | 41.11380 | -8.64556 | 2529 ft | 164 kts | 348° |
| 2026-05-05 18:35 | 41.12493 | -8.64856 | 2305 ft | 163 kts | 347° |
| 2026-05-05 18:35 | 41.13603 | -8.65163 | 2093 ft | 163 kts | 347° |
| 2026-05-05 18:36 | 41.14710 | -8.65462 | 1881 ft | 162 kts | 347° |
| 2026-05-05 18:36 | 41.15819 | -8.65757 | 1651 ft | 163 kts | 347° |
| 2026-05-05 18:36 | 41.16899 | -8.66016 | 1486 ft | 150 kts | 349° |
| 2026-05-05 18:36 | 41.17866 | -8.66252 | 1291 ft | 133 kts | 348° |
| 2026-05-05 18:37 | 41.18734 | -8.66489 | 1035 ft | 124 kts | 346° |
| 2026-05-05 18:37 | 41.19571 | -8.66734 | 919 ft | 124 kts | 347° |
| 2026-05-05 18:37 | 41.20423 | -8.66979 | 918 ft | 127 kts | 347° |
| 2026-05-05 18:37 | 41.21281 | -8.67200 | 690 ft | 124 kts | 346° |
| 2026-05-05 18:38 | 41.22123 | -8.67415 | 570 ft | 124 kts | 343° |
| 2026-05-05 18:38 | 41.22950 | -8.67634 | 362 ft | 118 kts | 346° |
| 2026-05-05 18:38 | 41.23749 | -8.67849 | 235 ft | 111 kts | 347° |
| 2026-05-05 18:38 | 41.24362 | -8.68010 | 222 ft | 63 kts | 348° |
| 2026-05-05 18:39 | 41.24696 | -8.68096 | 210 ft | 45 kts | 348° |
| 2026-05-05 18:39 | 41.24998 | -8.68177 | 204 ft | 43 kts | 355° |
| 2026-05-05 18:39 | 41.25236 | -8.68125 | 194 ft | 22 kts | 20° |
| 2026-05-05 18:39 | 41.25295 | -8.68054 | 181 ft | 11 kts | 98° |
| 2026-05-05 18:40 | 41.25251 | -8.68015 | 192 ft | 7 kts | 165° |
| 2026-05-05 18:40 | 41.25197 | -8.67999 | 187 ft | 9 kts | 167° |
| 2026-05-05 18:40 | 41.25126 | -8.67979 | 198 ft | 12 kts | 168° |
| 2026-05-05 18:40 | 41.25028 | -8.67952 | 204 ft | 16 kts | 170° |
| 2026-05-05 18:41 | 41.24913 | -8.67923 | 205 ft | 18 kts | 164° |
| 2026-05-05 18:41 | 41.24797 | -8.67850 | 210 ft | 17 kts | 158° |
| 2026-05-05 18:41 | 41.24688 | -8.67810 | 220 ft | 15 kts | 168° |
| 2026-05-05 18:41 | 41.24587 | -8.67783 | 218 ft | 17 kts | 168° |
| 2026-05-05 18:42 | 41.24453 | -8.67746 | 225 ft | 22 kts | 169° |
| 2026-05-05 18:42 | 41.24327 | -8.67709 | 234 ft | 13 kts | 155° |
| 2026-05-05 18:42 | 41.24311 | -8.67697 | 236 ft | 0 kts | 146° |
| 2026-05-05 18:42 | 41.24304 | -8.67690 | 235 ft | 4 kts | 146° |
| 2026-05-05 18:43 | 41.24272 | -8.67652 | 237 ft | 9 kts | 132° |
| 2026-05-05 18:43 | 41.24225 | -8.67569 | 241 ft | 13 kts | 126° |
| 2026-05-05 18:43 | 41.24169 | -8.67494 | 243 ft | 11 kts | 143° |
| 2026-05-05 18:43 | 41.24109 | -8.67448 | 243 ft | 10 kts | 157° |
| 2026-05-05 18:44 | 41.24049 | -8.67426 | 243 ft | 9 kts | 168° |
| 2026-05-05 18:44 | 41.23993 | -8.67419 | 243 ft | 7 kts | 184° |
| 2026-05-05 18:44 | 41.23958 | -8.67391 | 243 ft | 5 kts | 130° |
| 2026-05-05 18:44 | 41.23938 | -8.67351 | 243 ft | 5 kts | 124° |
| 2026-05-05 18:45 | 41.23929 | -8.67334 | 243 ft | 2 kts | 124° |
| 2026-05-05 18:45 | 41.23924 | -8.67325 | 243 ft | 1 kts | 124° |
| 2026-05-05 18:45 | 41.23923 | -8.67323 | 243 ft | 0 kts | 124° |
| 2026-05-05 18:58 | 41.23924 | -8.67323 | 243 ft | 0 kts | 124° |
| 2026-05-05 19:05 | 41.23924 | -8.67324 | 243 ft | 0 kts | 124° |
| 2026-05-05 19:26 | 41.23924 | -8.67325 | 243 ft | 0 kts | 124° |
| 2026-05-05 19:39 | 41.23925 | -8.67325 | 243 ft | 0 kts | 124° |
| 2026-05-05 19:47 | 41.23925 | -8.67326 | 243 ft | 0 kts | 124° |
| 2026-05-05 20:11 | 41.23925 | -8.67327 | 243 ft | 0 kts | 124° |